N8767 MYNN-TIST
Flight info
| Callsign | N8767 |
|---|---|
| Flight time | 1h 50m |
| Altitude | 41000 |
| Route | ZQA Y399 SAPPO R507 UTAHS DCT STT |
| Aircraft | B737/M-SDE2E3FGHIRWXY/LB1 |
Departure
| Time | 2026-05-05 15:13 |
|---|---|
| Airport | Lynden Pindling International Airport (MYNN) |
Arrival
| Time | 2026-05-05 17:03 |
|---|---|
| Airport | Cyril E. King Airport (TIST) |
| Time | Latitude | Longitude | Altitude | Speed | Heading |
|---|---|---|---|---|---|
| 2026-05-05 14:38 | 25.03012 | -77.45577 | 15 ft | 0 kts | 226° |
| 2026-05-05 14:59 | 25.03015 | -77.45574 | 15 ft | 3 kts | 226° |
| 2026-05-05 14:59 | 25.03033 | -77.45553 | 18 ft | 4 kts | 226° |
| 2026-05-05 15:00 | 25.03036 | -77.45550 | 15 ft | 0 kts | 226° |
| 2026-05-05 15:06 | 25.03035 | -77.45551 | 15 ft | 0 kts | 227° |
| 2026-05-05 15:06 | 25.03042 | -77.45586 | 17 ft | 8 kts | 291° |
| 2026-05-05 15:06 | 25.03088 | -77.45642 | 17 ft | 11 kts | 319° |
| 2026-05-05 15:06 | 25.03146 | -77.45695 | 15 ft | 12 kts | 327° |
| 2026-05-05 15:07 | 25.03229 | -77.45700 | 15 ft | 13 kts | 19° |
| 2026-05-05 15:07 | 25.03325 | -77.45662 | 15 ft | 16 kts | 20° |
| 2026-05-05 15:07 | 25.03428 | -77.45611 | 16 ft | 16 kts | 36° |
| 2026-05-05 15:07 | 25.03516 | -77.45524 | 16 ft | 18 kts | 39° |
| 2026-05-05 15:08 | 25.03611 | -77.45568 | 16 ft | 17 kts | 314° |
| 2026-05-05 15:08 | 25.03691 | -77.45657 | 19 ft | 16 kts | 315° |
| 2026-05-05 15:08 | 25.03772 | -77.45746 | 16 ft | 18 kts | 315° |
| 2026-05-05 15:08 | 25.03858 | -77.45842 | 16 ft | 17 kts | 315° |
| 2026-05-05 15:09 | 25.03944 | -77.45938 | 17 ft | 18 kts | 314° |
| 2026-05-05 15:09 | 25.04035 | -77.46040 | 16 ft | 18 kts | 315° |
| 2026-05-05 15:09 | 25.04125 | -77.46139 | 17 ft | 19 kts | 315° |
| 2026-05-05 15:09 | 25.04227 | -77.46253 | 17 ft | 22 kts | 315° |
| 2026-05-05 15:10 | 25.04334 | -77.46372 | 16 ft | 22 kts | 314° |
| 2026-05-05 15:10 | 25.04438 | -77.46488 | 16 ft | 21 kts | 315° |
| 2026-05-05 15:10 | 25.04539 | -77.46600 | 16 ft | 20 kts | 315° |
| 2026-05-05 15:10 | 25.04638 | -77.46708 | 17 ft | 20 kts | 315° |
| 2026-05-05 15:11 | 25.04733 | -77.46812 | 18 ft | 19 kts | 315° |
| 2026-05-05 15:11 | 25.04827 | -77.46915 | 19 ft | 18 kts | 315° |
| 2026-05-05 15:11 | 25.04914 | -77.47013 | 17 ft | 18 kts | 314° |
| 2026-05-05 15:11 | 25.05018 | -77.47130 | 18 ft | 26 kts | 314° |
| 2026-05-05 15:12 | 25.05144 | -77.47271 | 19 ft | 25 kts | 314° |
| 2026-05-05 15:12 | 25.05220 | -77.47420 | 18 ft | 22 kts | 262° |
| 2026-05-05 15:12 | 25.05157 | -77.47521 | 20 ft | 12 kts | 186° |
| 2026-05-05 15:12 | 25.05123 | -77.47503 | 19 ft | 8 kts | 135° |
| 2026-05-05 15:13 | 25.04788 | -77.47136 | 21 ft | 124 kts | 135° |
| 2026-05-05 15:13 | 25.03965 | -77.46235 | 322 ft | 197 kts | 135° |
| 2026-05-05 15:13 | 25.03003 | -77.44997 | 1345 ft | 224 kts | 126° |
| 2026-05-05 15:13 | 25.02145 | -77.43574 | 2620 ft | 222 kts | 124° |
| 2026-05-05 15:14 | 25.01325 | -77.42032 | 3384 ft | 242 kts | 119° |
| 2026-05-05 15:14 | 25.00509 | -77.40286 | 3839 ft | 269 kts | 118° |
| 2026-05-05 15:14 | 24.99653 | -77.38399 | 4788 ft | 279 kts | 117° |
| 2026-05-05 15:14 | 24.98783 | -77.36475 | 5941 ft | 283 kts | 118° |
| 2026-05-05 15:15 | 24.97893 | -77.34517 | 7002 ft | 289 kts | 118° |
| 2026-05-05 15:15 | 24.96979 | -77.32512 | 8044 ft | 294 kts | 118° |
| 2026-05-05 15:15 | 24.96046 | -77.30478 | 9083 ft | 300 kts | 119° |
| 2026-05-05 15:15 | 24.95095 | -77.28407 | 10097 ft | 306 kts | 119° |
| 2026-05-05 15:16 | 24.94116 | -77.26287 | 10708 ft | 326 kts | 119° |
| 2026-05-05 15:16 | 24.93054 | -77.23993 | 11324 ft | 343 kts | 119° |
| 2026-05-05 15:16 | 24.91959 | -77.21627 | 12191 ft | 350 kts | 119° |
| 2026-05-05 15:16 | 24.90848 | -77.19227 | 13142 ft | 355 kts | 119° |
| 2026-05-05 15:17 | 24.89717 | -77.16785 | 14035 ft | 362 kts | 119° |
| 2026-05-05 15:17 | 24.88561 | -77.14292 | 14876 ft | 368 kts | 119° |
| 2026-05-05 15:17 | 24.87386 | -77.11760 | 15741 ft | 374 kts | 119° |
| 2026-05-05 15:17 | 24.86193 | -77.09191 | 16625 ft | 380 kts | 119° |
| 2026-05-05 15:18 | 24.84975 | -77.06573 | 17462 ft | 387 kts | 119° |
| 2026-05-05 15:18 | 24.83739 | -77.03915 | 18296 ft | 394 kts | 119° |
| 2026-05-05 15:18 | 24.82479 | -77.01208 | 19023 ft | 400 kts | 119° |
| 2026-05-05 15:18 | 24.81202 | -76.98465 | 19779 ft | 405 kts | 119° |
| 2026-05-05 15:19 | 24.79909 | -76.95690 | 20536 ft | 411 kts | 119° |
| 2026-05-05 15:19 | 24.78593 | -76.92867 | 21280 ft | 417 kts | 119° |
| 2026-05-05 15:19 | 24.77261 | -76.90014 | 22012 ft | 422 kts | 119° |
| 2026-05-05 15:19 | 24.75915 | -76.87129 | 22746 ft | 428 kts | 119° |
| 2026-05-05 15:20 | 24.74542 | -76.84190 | 23488 ft | 432 kts | 119° |
| 2026-05-05 15:20 | 24.73161 | -76.81234 | 24120 ft | 437 kts | 119° |
| 2026-05-05 15:20 | 24.71767 | -76.78255 | 24756 ft | 440 kts | 119° |
| 2026-05-05 15:20 | 24.70360 | -76.75248 | 25394 ft | 444 kts | 119° |
| 2026-05-05 15:21 | 24.68939 | -76.72214 | 26027 ft | 448 kts | 119° |
| 2026-05-05 15:21 | 24.67501 | -76.69147 | 26639 ft | 452 kts | 119° |
| 2026-05-05 15:21 | 24.66057 | -76.66067 | 27242 ft | 456 kts | 119° |
| 2026-05-05 15:21 | 24.64596 | -76.62954 | 27834 ft | 460 kts | 119° |
| 2026-05-05 15:22 | 24.63118 | -76.59807 | 28420 ft | 464 kts | 118° |
| 2026-05-05 15:22 | 24.61632 | -76.56645 | 28989 ft | 468 kts | 118° |
| 2026-05-05 15:22 | 24.60130 | -76.53453 | 29554 ft | 472 kts | 118° |
| 2026-05-05 15:22 | 24.58614 | -76.50231 | 30117 ft | 476 kts | 119° |
| 2026-05-05 15:23 | 24.57106 | -76.47029 | 30560 ft | 480 kts | 119° |
| 2026-05-05 15:23 | 24.55564 | -76.43756 | 31006 ft | 484 kts | 119° |
| 2026-05-05 15:23 | 24.54010 | -76.40461 | 31418 ft | 488 kts | 119° |
| 2026-05-05 15:23 | 24.52445 | -76.37145 | 31820 ft | 491 kts | 118° |
| 2026-05-05 15:24 | 24.50867 | -76.33805 | 32207 ft | 494 kts | 118° |
| 2026-05-05 15:24 | 24.49279 | -76.30443 | 32574 ft | 498 kts | 118° |
| 2026-05-05 15:24 | 24.47678 | -76.27058 | 32926 ft | 501 kts | 118° |
| 2026-05-05 15:24 | 24.46066 | -76.23653 | 33264 ft | 504 kts | 118° |
| 2026-05-05 15:25 | 24.44445 | -76.20230 | 33593 ft | 507 kts | 118° |
| 2026-05-05 15:25 | 24.42815 | -76.16791 | 33948 ft | 509 kts | 118° |
| 2026-05-05 15:25 | 24.41181 | -76.13345 | 34365 ft | 508 kts | 118° |
| 2026-05-05 15:25 | 24.39555 | -76.09918 | 34813 ft | 506 kts | 118° |
| 2026-05-05 15:26 | 24.37930 | -76.06497 | 35235 ft | 504 kts | 118° |
| 2026-05-05 15:26 | 24.36307 | -76.03084 | 35591 ft | 504 kts | 118° |
| 2026-05-05 15:26 | 24.34686 | -75.99677 | 35896 ft | 505 kts | 118° |
| 2026-05-05 15:26 | 24.33059 | -75.96259 | 36227 ft | 505 kts | 118° |
| 2026-05-05 15:27 | 24.31432 | -75.92845 | 36591 ft | 504 kts | 118° |
| 2026-05-05 15:27 | 24.29813 | -75.89448 | 36972 ft | 503 kts | 118° |
| 2026-05-05 15:27 | 24.28189 | -75.86046 | 37331 ft | 502 kts | 118° |
| 2026-05-05 15:27 | 24.26570 | -75.82655 | 37649 ft | 502 kts | 117° |
| 2026-05-05 15:28 | 24.24948 | -75.79260 | 38007 ft | 502 kts | 117° |
| 2026-05-05 15:28 | 24.23332 | -75.75880 | 38438 ft | 499 kts | 118° |
| 2026-05-05 15:28 | 24.21729 | -75.72530 | 38883 ft | 495 kts | 118° |
| 2026-05-05 15:28 | 24.20130 | -75.69191 | 39070 ft | 497 kts | 118° |
| 2026-05-05 15:29 | 24.18512 | -75.65816 | 39076 ft | 503 kts | 118° |
| 2026-05-05 15:29 | 24.15805 | -75.60171 | 39086 ft | 503 kts | 118° |
| 2026-05-05 15:30 | 24.12027 | -75.52305 | 39072 ft | 495 kts | 118° |
| 2026-05-05 15:30 | 24.09367 | -75.46775 | 39077 ft | 493 kts | 118° |
| 2026-05-05 15:31 | 24.06163 | -75.40124 | 39092 ft | 498 kts | 118° |
| 2026-05-05 15:31 | 24.02893 | -75.33345 | 39092 ft | 510 kts | 118° |
| 2026-05-05 15:32 | 23.99566 | -75.26456 | 39072 ft | 512 kts | 118° |
| 2026-05-05 15:32 | 23.96242 | -75.19583 | 39073 ft | 511 kts | 118° |
| 2026-05-05 15:33 | 23.92912 | -75.12707 | 39075 ft | 511 kts | 118° |
| 2026-05-05 15:33 | 23.89608 | -75.05898 | 39083 ft | 512 kts | 119° |
| 2026-05-05 15:34 | 23.86281 | -74.99047 | 39074 ft | 508 kts | 119° |
| 2026-05-05 15:34 | 23.82975 | -74.92249 | 39072 ft | 506 kts | 119° |
| 2026-05-05 15:35 | 23.79677 | -74.85481 | 39074 ft | 504 kts | 119° |
| 2026-05-05 15:35 | 23.76384 | -74.78731 | 39078 ft | 503 kts | 119° |
| 2026-05-05 15:36 | 23.73095 | -74.71997 | 39078 ft | 502 kts | 119° |
| 2026-05-05 15:36 | 23.69806 | -74.65274 | 39080 ft | 502 kts | 119° |
| 2026-05-05 15:37 | 23.66518 | -74.58562 | 39080 ft | 502 kts | 119° |
| 2026-05-05 15:37 | 23.63216 | -74.51832 | 39084 ft | 503 kts | 119° |
| 2026-05-05 15:38 | 23.59934 | -74.45150 | 39085 ft | 504 kts | 119° |
| 2026-05-05 15:38 | 23.56597 | -74.38366 | 39077 ft | 504 kts | 119° |
| 2026-05-05 15:39 | 23.53306 | -74.31684 | 39085 ft | 504 kts | 120° |
| 2026-05-05 15:39 | 23.49992 | -74.24966 | 39076 ft | 503 kts | 120° |
| 2026-05-05 15:40 | 23.46687 | -74.18274 | 39076 ft | 502 kts | 120° |
| 2026-05-05 15:40 | 23.43375 | -74.11578 | 39081 ft | 501 kts | 120° |
| 2026-05-05 15:41 | 23.40067 | -74.04900 | 39081 ft | 501 kts | 120° |
| 2026-05-05 15:41 | 23.36760 | -73.98230 | 39087 ft | 500 kts | 120° |
| 2026-05-05 15:42 | 23.33462 | -73.91589 | 39079 ft | 498 kts | 120° |
| 2026-05-05 15:42 | 23.30171 | -73.84972 | 39079 ft | 497 kts | 120° |
| 2026-05-05 15:43 | 23.26880 | -73.78363 | 39082 ft | 496 kts | 120° |
| 2026-05-05 15:43 | 23.23596 | -73.71777 | 39081 ft | 495 kts | 120° |
| 2026-05-05 15:44 | 23.20311 | -73.65198 | 39076 ft | 495 kts | 120° |
| 2026-05-05 15:44 | 23.17038 | -73.58650 | 39077 ft | 495 kts | 120° |
| 2026-05-05 15:45 | 23.13746 | -73.52074 | 39082 ft | 496 kts | 120° |
| 2026-05-05 15:45 | 23.10445 | -73.45489 | 39086 ft | 497 kts | 120° |
| 2026-05-05 15:46 | 23.07134 | -73.38892 | 39085 ft | 498 kts | 120° |
| 2026-05-05 15:46 | 23.03817 | -73.32291 | 39085 ft | 498 kts | 120° |
| 2026-05-05 15:47 | 23.00486 | -73.25673 | 39078 ft | 499 kts | 121° |
| 2026-05-05 15:47 | 22.97152 | -73.19056 | 39084 ft | 500 kts | 121° |
| 2026-05-05 15:48 | 22.93805 | -73.12423 | 39084 ft | 501 kts | 121° |
| 2026-05-05 15:48 | 22.90458 | -73.05797 | 39087 ft | 501 kts | 121° |
| 2026-05-05 15:49 | 22.87112 | -72.99182 | 39087 ft | 501 kts | 121° |
| 2026-05-05 15:49 | 22.83759 | -72.92561 | 39080 ft | 501 kts | 121° |
| 2026-05-05 15:50 | 22.80399 | -72.85938 | 39065 ft | 501 kts | 120° |
| 2026-05-05 15:50 | 22.77060 | -72.79358 | 39079 ft | 502 kts | 120° |
| 2026-05-05 15:51 | 22.73684 | -72.72722 | 39090 ft | 503 kts | 120° |
| 2026-05-05 15:51 | 22.70292 | -72.66080 | 39094 ft | 504 kts | 120° |
| 2026-05-05 15:52 | 22.66894 | -72.59434 | 39096 ft | 505 kts | 120° |
| 2026-05-05 15:52 | 22.63485 | -72.52770 | 39090 ft | 506 kts | 120° |
| 2026-05-05 15:53 | 22.60071 | -72.46103 | 39084 ft | 507 kts | 121° |
| 2026-05-05 15:53 | 22.56675 | -72.39478 | 39086 ft | 507 kts | 121° |
| 2026-05-05 15:54 | 22.53252 | -72.32811 | 39090 ft | 507 kts | 121° |
| 2026-05-05 15:54 | 22.49825 | -72.26145 | 39086 ft | 507 kts | 121° |
| 2026-05-05 15:55 | 22.46396 | -72.19484 | 39086 ft | 507 kts | 120° |
| 2026-05-05 15:55 | 22.42963 | -72.12825 | 39086 ft | 507 kts | 120° |
| 2026-05-05 15:56 | 22.39528 | -72.06169 | 39073 ft | 506 kts | 120° |
| 2026-05-05 15:56 | 22.36107 | -71.99547 | 39079 ft | 504 kts | 120° |
| 2026-05-05 15:57 | 22.32687 | -71.92938 | 39082 ft | 503 kts | 120° |
| 2026-05-05 15:57 | 22.29278 | -71.86359 | 39088 ft | 501 kts | 121° |
| 2026-05-05 15:58 | 22.25878 | -71.79803 | 39080 ft | 499 kts | 121° |
| 2026-05-05 15:58 | 22.22508 | -71.73316 | 39084 ft | 498 kts | 121° |
| 2026-05-05 15:59 | 22.19117 | -71.66795 | 39084 ft | 497 kts | 121° |
| 2026-05-05 15:59 | 22.15732 | -71.60293 | 39084 ft | 497 kts | 121° |
| 2026-05-05 16:00 | 22.12346 | -71.53798 | 39088 ft | 496 kts | 121° |
| 2026-05-05 16:00 | 22.08967 | -71.47326 | 39077 ft | 494 kts | 121° |
| 2026-05-05 16:01 | 22.05593 | -71.40870 | 39084 ft | 493 kts | 121° |
| 2026-05-05 16:01 | 22.02225 | -71.34433 | 39085 ft | 493 kts | 121° |
| 2026-05-05 16:02 | 21.98861 | -71.28011 | 39079 ft | 490 kts | 121° |
| 2026-05-05 16:02 | 21.95520 | -71.21641 | 39079 ft | 487 kts | 121° |
| 2026-05-05 16:03 | 21.92193 | -71.15306 | 39086 ft | 485 kts | 121° |
| 2026-05-05 16:03 | 21.88873 | -71.08991 | 39091 ft | 484 kts | 121° |
| 2026-05-05 16:04 | 21.85554 | -71.02688 | 39084 ft | 483 kts | 121° |
| 2026-05-05 16:04 | 21.82237 | -70.96394 | 39086 ft | 483 kts | 121° |
| 2026-05-05 16:05 | 21.78918 | -70.90104 | 39086 ft | 483 kts | 121° |
| 2026-05-05 16:05 | 21.75597 | -70.83818 | 39082 ft | 484 kts | 121° |
| 2026-05-05 16:06 | 21.72282 | -70.77551 | 39089 ft | 485 kts | 122° |
| 2026-05-05 16:06 | 21.68939 | -70.71237 | 39088 ft | 486 kts | 122° |
| 2026-05-05 16:07 | 21.65585 | -70.64912 | 39088 ft | 487 kts | 122° |
| 2026-05-05 16:07 | 21.62230 | -70.58590 | 39087 ft | 487 kts | 122° |
| 2026-05-05 16:08 | 21.58861 | -70.52249 | 39062 ft | 489 kts | 123° |
| 2026-05-05 16:08 | 21.55479 | -70.45894 | 39093 ft | 492 kts | 123° |
| 2026-05-05 16:09 | 21.52063 | -70.39483 | 39099 ft | 497 kts | 123° |
| 2026-05-05 16:09 | 21.48614 | -70.33016 | 39098 ft | 500 kts | 123° |
| 2026-05-05 16:10 | 21.45153 | -70.26533 | 39089 ft | 502 kts | 123° |
| 2026-05-05 16:10 | 21.41701 | -70.20074 | 39079 ft | 502 kts | 123° |
| 2026-05-05 16:11 | 21.38227 | -70.13583 | 39086 ft | 502 kts | 124° |
| 2026-05-05 16:12 | 21.31265 | -70.00596 | 39087 ft | 502 kts | 124° |
| 2026-05-05 16:13 | 21.22561 | -69.84406 | 39082 ft | 501 kts | 124° |
| 2026-05-05 16:13 | 21.19078 | -69.77943 | 39075 ft | 500 kts | 125° |
| 2026-05-05 16:14 | 21.12115 | -69.65037 | 39093 ft | 500 kts | 125° |
| 2026-05-05 16:15 | 21.05723 | -69.53220 | 39096 ft | 501 kts | 125° |
| 2026-05-05 16:16 | 20.98182 | -69.39309 | 39098 ft | 499 kts | 125° |
| 2026-05-05 16:17 | 20.93515 | -69.30719 | 39093 ft | 499 kts | 125° |
| 2026-05-05 16:18 | 20.88305 | -69.21144 | 39090 ft | 498 kts | 125° |
| 2026-05-05 16:19 | 20.83071 | -69.11541 | 39097 ft | 497 kts | 125° |
| 2026-05-05 16:19 | 20.77851 | -69.01980 | 39091 ft | 496 kts | 125° |
| 2026-05-05 16:20 | 20.70908 | -68.89288 | 39098 ft | 494 kts | 125° |
| 2026-05-05 16:22 | 20.62243 | -68.73490 | 39100 ft | 492 kts | 125° |
| 2026-05-05 16:23 | 20.55334 | -68.60922 | 39098 ft | 492 kts | 125° |
| 2026-05-05 16:23 | 20.50139 | -68.51492 | 39091 ft | 492 kts | 125° |
| 2026-05-05 16:24 | 20.46670 | -68.45201 | 39097 ft | 492 kts | 125° |
| 2026-05-05 16:25 | 20.41921 | -68.35484 | 39112 ft | 497 kts | 115° |
| 2026-05-05 16:25 | 20.38187 | -68.25152 | 39101 ft | 498 kts | 115° |
| 2026-05-05 16:26 | 20.33092 | -68.11472 | 39104 ft | 498 kts | 115° |
| 2026-05-05 16:27 | 20.30502 | -68.04614 | 39101 ft | 499 kts | 115° |
| 2026-05-05 16:27 | 20.27913 | -67.97752 | 39101 ft | 499 kts | 115° |
| 2026-05-05 16:28 | 20.25320 | -67.90892 | 39105 ft | 499 kts | 116° |
| 2026-05-05 16:28 | 20.21843 | -67.84606 | 39107 ft | 489 kts | 134° |
| 2026-05-05 16:29 | 20.17153 | -67.79452 | 39107 ft | 483 kts | 141° |
| 2026-05-05 16:29 | 20.12337 | -67.74457 | 39104 ft | 483 kts | 141° |
| 2026-05-05 16:30 | 20.07553 | -67.69430 | 39105 ft | 484 kts | 140° |
| 2026-05-05 16:30 | 20.02790 | -67.64375 | 39099 ft | 484 kts | 140° |
| 2026-05-05 16:31 | 19.98029 | -67.59316 | 39098 ft | 484 kts | 140° |
| 2026-05-05 16:31 | 19.93265 | -67.54260 | 39099 ft | 484 kts | 140° |
| 2026-05-05 16:32 | 19.88533 | -67.49246 | 39103 ft | 484 kts | 140° |
| 2026-05-05 16:32 | 19.83764 | -67.44199 | 39104 ft | 484 kts | 140° |
| 2026-05-05 16:33 | 19.78990 | -67.39149 | 39105 ft | 484 kts | 140° |
| 2026-05-05 16:33 | 19.74213 | -67.34100 | 39100 ft | 484 kts | 140° |
| 2026-05-05 16:34 | 19.69455 | -67.29033 | 39101 ft | 486 kts | 137° |
| 2026-05-05 16:34 | 19.65455 | -67.23183 | 39108 ft | 492 kts | 128° |
| 2026-05-05 16:35 | 19.61681 | -67.17137 | 39105 ft | 492 kts | 127° |
| 2026-05-05 16:35 | 19.57888 | -67.11110 | 39097 ft | 491 kts | 128° |
| 2026-05-05 16:36 | 19.54070 | -67.05107 | 39104 ft | 491 kts | 128° |
| 2026-05-05 16:36 | 19.50258 | -66.99141 | 39103 ft | 491 kts | 128° |
| 2026-05-05 16:37 | 19.46416 | -66.93135 | 38809 ft | 495 kts | 128° |
| 2026-05-05 16:37 | 19.44499 | -66.90139 | 38573 ft | 485 kts | 128° |
| 2026-05-05 16:37 | 19.42632 | -66.87215 | 38263 ft | 475 kts | 128° |
| 2026-05-05 16:38 | 19.40795 | -66.84341 | 37679 ft | 472 kts | 128° |
| 2026-05-05 16:38 | 19.38951 | -66.81464 | 37090 ft | 470 kts | 128° |
| 2026-05-05 16:38 | 19.37114 | -66.78599 | 36440 ft | 469 kts | 127° |
| 2026-05-05 16:38 | 19.35280 | -66.75742 | 35779 ft | 469 kts | 127° |
| 2026-05-05 16:39 | 19.33445 | -66.72884 | 35210 ft | 467 kts | 127° |
| 2026-05-05 16:39 | 19.31629 | -66.70054 | 34694 ft | 464 kts | 127° |
| 2026-05-05 16:39 | 19.29827 | -66.67247 | 34185 ft | 461 kts | 127° |
| 2026-05-05 16:39 | 19.28024 | -66.64440 | 33601 ft | 458 kts | 127° |
| 2026-05-05 16:40 | 19.26244 | -66.61669 | 33080 ft | 454 kts | 127° |
| 2026-05-05 16:40 | 19.24496 | -66.58950 | 32571 ft | 450 kts | 127° |
| 2026-05-05 16:40 | 19.22745 | -66.56227 | 32070 ft | 446 kts | 127° |
| 2026-05-05 16:40 | 19.21009 | -66.53529 | 31576 ft | 442 kts | 126° |
| 2026-05-05 16:41 | 19.19289 | -66.50857 | 31099 ft | 437 kts | 126° |
| 2026-05-05 16:41 | 19.17584 | -66.48211 | 30627 ft | 434 kts | 126° |
| 2026-05-05 16:41 | 19.15893 | -66.45586 | 30156 ft | 430 kts | 126° |
| 2026-05-05 16:41 | 19.14212 | -66.42980 | 29603 ft | 426 kts | 126° |
| 2026-05-05 16:42 | 19.12549 | -66.40401 | 29055 ft | 422 kts | 126° |
| 2026-05-05 16:42 | 19.10908 | -66.37857 | 28545 ft | 417 kts | 126° |
| 2026-05-05 16:42 | 19.09282 | -66.35337 | 28058 ft | 412 kts | 126° |
| 2026-05-05 16:42 | 19.07675 | -66.32850 | 27553 ft | 408 kts | 126° |
| 2026-05-05 16:43 | 19.06083 | -66.30385 | 27058 ft | 404 kts | 126° |
| 2026-05-05 16:43 | 19.04506 | -66.27945 | 26564 ft | 401 kts | 126° |
| 2026-05-05 16:43 | 19.02939 | -66.25520 | 26083 ft | 397 kts | 126° |
| 2026-05-05 16:43 | 19.01384 | -66.23118 | 25600 ft | 395 kts | 126° |
| 2026-05-05 16:44 | 18.99841 | -66.20733 | 25124 ft | 392 kts | 126° |
| 2026-05-05 16:44 | 18.98306 | -66.18362 | 24620 ft | 391 kts | 126° |
| 2026-05-05 16:44 | 18.96775 | -66.15996 | 24117 ft | 389 kts | 126° |
| 2026-05-05 16:44 | 18.95248 | -66.13640 | 23611 ft | 388 kts | 125° |
| 2026-05-05 16:45 | 18.93728 | -66.11294 | 23040 ft | 386 kts | 126° |
| 2026-05-05 16:45 | 18.92218 | -66.08964 | 22515 ft | 383 kts | 126° |
| 2026-05-05 16:45 | 18.90721 | -66.06655 | 22009 ft | 379 kts | 126° |
| 2026-05-05 16:45 | 18.89239 | -66.04369 | 21511 ft | 376 kts | 126° |
| 2026-05-05 16:46 | 18.87764 | -66.02096 | 21025 ft | 373 kts | 126° |
| 2026-05-05 16:46 | 18.86305 | -65.99848 | 20537 ft | 370 kts | 126° |
| 2026-05-05 16:46 | 18.84851 | -65.97610 | 20058 ft | 368 kts | 126° |
| 2026-05-05 16:46 | 18.83409 | -65.95389 | 19577 ft | 365 kts | 126° |
| 2026-05-05 16:47 | 18.81981 | -65.93192 | 19076 ft | 364 kts | 126° |
| 2026-05-05 16:47 | 18.80544 | -65.90982 | 18579 ft | 363 kts | 125° |
| 2026-05-05 16:47 | 18.79117 | -65.88788 | 18044 ft | 362 kts | 125° |
| 2026-05-05 16:47 | 18.77700 | -65.86609 | 17536 ft | 359 kts | 125° |
| 2026-05-05 16:48 | 18.76302 | -65.84460 | 16950 ft | 359 kts | 125° |
| 2026-05-05 16:48 | 18.74892 | -65.82295 | 16446 ft | 356 kts | 125° |
| 2026-05-05 16:48 | 18.73496 | -65.80150 | 15950 ft | 353 kts | 125° |
| 2026-05-05 16:48 | 18.72115 | -65.78029 | 15473 ft | 349 kts | 126° |
| 2026-05-05 16:49 | 18.70757 | -65.75946 | 14983 ft | 338 kts | 125° |
| 2026-05-05 16:49 | 18.69448 | -65.73937 | 14543 ft | 325 kts | 125° |
| 2026-05-05 16:49 | 18.68189 | -65.72004 | 14106 ft | 314 kts | 125° |
| 2026-05-05 16:49 | 18.66974 | -65.70141 | 13653 ft | 303 kts | 126° |
| 2026-05-05 16:50 | 18.65784 | -65.68318 | 13214 ft | 301 kts | 125° |
| 2026-05-05 16:50 | 18.64598 | -65.66501 | 12782 ft | 299 kts | 126° |
| 2026-05-05 16:50 | 18.63422 | -65.64699 | 12356 ft | 297 kts | 126° |
| 2026-05-05 16:50 | 18.62253 | -65.62909 | 11932 ft | 295 kts | 126° |
| 2026-05-05 16:51 | 18.61089 | -65.61128 | 11520 ft | 294 kts | 126° |
| 2026-05-05 16:51 | 18.59932 | -65.59356 | 11103 ft | 292 kts | 126° |
| 2026-05-05 16:51 | 18.58783 | -65.57599 | 10690 ft | 291 kts | 126° |
| 2026-05-05 16:51 | 18.57634 | -65.55840 | 10275 ft | 290 kts | 126° |
| 2026-05-05 16:52 | 18.56505 | -65.54114 | 10123 ft | 279 kts | 126° |
| 2026-05-05 16:52 | 18.55423 | -65.52458 | 9857 ft | 273 kts | 126° |
| 2026-05-05 16:52 | 18.54347 | -65.50814 | 9496 ft | 270 kts | 126° |
| 2026-05-05 16:52 | 18.53299 | -65.49213 | 9129 ft | 268 kts | 126° |
| 2026-05-05 16:53 | 18.52243 | -65.47599 | 8792 ft | 265 kts | 126° |
| 2026-05-05 16:53 | 18.51201 | -65.46009 | 8444 ft | 263 kts | 125° |
| 2026-05-05 16:53 | 18.50165 | -65.44427 | 8093 ft | 261 kts | 126° |
| 2026-05-05 16:53 | 18.49138 | -65.42860 | 7754 ft | 260 kts | 125° |
| 2026-05-05 16:54 | 18.48115 | -65.41298 | 7389 ft | 259 kts | 125° |
| 2026-05-05 16:54 | 18.47104 | -65.39754 | 7021 ft | 254 kts | 125° |
| 2026-05-05 16:54 | 18.46113 | -65.38243 | 6722 ft | 247 kts | 124° |
| 2026-05-05 16:54 | 18.45152 | -65.36778 | 6396 ft | 238 kts | 124° |
| 2026-05-05 16:55 | 18.44228 | -65.35369 | 6070 ft | 230 kts | 124° |
| 2026-05-05 16:55 | 18.43328 | -65.33996 | 5748 ft | 225 kts | 124° |
| 2026-05-05 16:55 | 18.42429 | -65.32626 | 5444 ft | 228 kts | 124° |
| 2026-05-05 16:55 | 18.41530 | -65.31255 | 5134 ft | 227 kts | 124° |
| 2026-05-05 16:56 | 18.40649 | -65.29912 | 4803 ft | 219 kts | 124° |
| 2026-05-05 16:56 | 18.39798 | -65.28616 | 4478 ft | 213 kts | 125° |
| 2026-05-05 16:56 | 18.38951 | -65.27326 | 4173 ft | 214 kts | 125° |
| 2026-05-05 16:56 | 18.38106 | -65.26038 | 3863 ft | 214 kts | 125° |
| 2026-05-05 16:57 | 18.37257 | -65.24744 | 3548 ft | 215 kts | 125° |
| 2026-05-05 16:57 | 18.36405 | -65.23449 | 3239 ft | 215 kts | 124° |
| 2026-05-05 16:57 | 18.35553 | -65.22153 | 2930 ft | 215 kts | 124° |
| 2026-05-05 16:57 | 18.34717 | -65.20880 | 2824 ft | 205 kts | 124° |
| 2026-05-05 16:58 | 18.33933 | -65.19688 | 2808 ft | 190 kts | 124° |
| 2026-05-05 16:58 | 18.33218 | -65.18590 | 2794 ft | 178 kts | 121° |
| 2026-05-05 16:58 | 18.32961 | -65.17356 | 2809 ft | 175 kts | 89° |
| 2026-05-05 16:58 | 18.32991 | -65.16058 | 2803 ft | 181 kts | 93° |
| 2026-05-05 16:59 | 18.33004 | -65.14714 | 2809 ft | 184 kts | 91° |
| 2026-05-05 16:59 | 18.33048 | -65.13391 | 2689 ft | 176 kts | 91° |
| 2026-05-05 16:59 | 18.33100 | -65.12148 | 2497 ft | 165 kts | 91° |
| 2026-05-05 16:59 | 18.33150 | -65.10977 | 2296 ft | 156 kts | 91° |
| 2026-05-05 17:00 | 18.33196 | -65.09859 | 2090 ft | 149 kts | 91° |
| 2026-05-05 17:00 | 18.33242 | -65.08779 | 1942 ft | 148 kts | 91° |
| 2026-05-05 17:00 | 18.33286 | -65.07722 | 1721 ft | 139 kts | 90° |
| 2026-05-05 17:00 | 18.33327 | -65.06763 | 1536 ft | 125 kts | 90° |
| 2026-05-05 17:01 | 18.33365 | -65.05861 | 1409 ft | 126 kts | 91° |
| 2026-05-05 17:01 | 18.33404 | -65.04927 | 1226 ft | 130 kts | 90° |
| 2026-05-05 17:01 | 18.33446 | -65.03960 | 1032 ft | 133 kts | 92° |
| 2026-05-05 17:01 | 18.33489 | -65.02999 | 902 ft | 128 kts | 93° |
| 2026-05-05 17:02 | 18.33528 | -65.02064 | 709 ft | 125 kts | 95° |
| 2026-05-05 17:02 | 18.33552 | -65.01471 | 631 ft | 122 kts | 95° |
| 2026-05-05 17:02 | 18.33601 | -65.00344 | 424 ft | 112 kts | 93° |
| 2026-05-05 17:02 | 18.33639 | -64.99504 | 273 ft | 120 kts | 93° |
| 2026-05-05 17:03 | 18.33686 | -64.98572 | 124 ft | 135 kts | 94° |
| 2026-05-05 17:03 | 18.33727 | -64.97577 | 33 ft | 126 kts | 92° |
| 2026-05-05 17:03 | 18.33745 | -64.97008 | 24 ft | 108 kts | 87° |
| 2026-05-05 17:03 | 18.33767 | -64.96473 | 19 ft | 31 kts | 87° |
| 2026-05-05 17:04 | 18.33745 | -64.96336 | 18 ft | 14 kts | 152° |
| 2026-05-05 17:04 | 18.33688 | -64.96386 | 23 ft | 13 kts | 266° |
| 2026-05-05 17:04 | 18.33684 | -64.96480 | 26 ft | 13 kts | 268° |
| 2026-05-05 17:04 | 18.33680 | -64.96577 | 23 ft | 14 kts | 267° |
| 2026-05-05 17:05 | 18.33676 | -64.96676 | 23 ft | 13 kts | 267° |
| 2026-05-05 17:05 | 18.33672 | -64.96771 | 24 ft | 13 kts | 267° |
| 2026-05-05 17:05 | 18.33667 | -64.96877 | 24 ft | 19 kts | 268° |
| 2026-05-05 17:05 | 18.33661 | -64.97013 | 25 ft | 18 kts | 267° |
| 2026-05-05 17:06 | 18.33656 | -64.97140 | 31 ft | 17 kts | 268° |
| 2026-05-05 17:06 | 18.33651 | -64.97264 | 26 ft | 16 kts | 267° |
| 2026-05-05 17:06 | 18.33642 | -64.97362 | 26 ft | 13 kts | 256° |
| 2026-05-05 17:06 | 18.33582 | -64.97383 | 26 ft | 9 kts | 127° |
| 2026-05-05 17:07 | 18.33565 | -64.97358 | 30 ft | 4 kts | 126° |
| 2026-05-05 17:07 | 18.33554 | -64.97341 | 27 ft | 0 kts | 126° |
| 2026-05-05 17:07 | 18.33552 | -64.97339 | 27 ft | 0 kts | 126° |